createdAt,value
2023-02-15T00:02:02.898Z,99.90
2023-02-15T00:04:47.318Z,99.90
2023-02-15T00:07:16.777Z,99.90
2023-02-15T00:09:45.787Z,99.90
2023-02-15T00:12:13.064Z,99.90
2023-02-15T00:14:40.355Z,99.90
2023-02-15T00:17:07.562Z,99.90
2023-02-15T00:19:35.021Z,99.90
2023-02-15T00:22:02.365Z,99.90
2023-02-15T00:24:29.641Z,99.90
2023-02-15T00:26:56.856Z,99.90
2023-02-15T00:29:24.338Z,99.90
2023-02-15T00:31:52.083Z,99.90
2023-02-15T00:34:23.173Z,99.90
2023-02-15T00:36:51.201Z,99.90
2023-02-15T00:39:19.392Z,99.90
2023-02-15T00:41:47.713Z,99.90
2023-02-15T00:44:15.235Z,99.90
2023-02-15T00:46:42.689Z,99.90
2023-02-15T00:49:11.085Z,99.90
2023-02-15T00:51:38.900Z,99.90
2023-02-15T00:54:06.598Z,99.90
2023-02-15T00:56:33.844Z,99.90
2023-02-15T00:59:01.196Z,99.90
2023-02-15T01:01:28.486Z,99.90
2023-02-15T01:03:55.714Z,99.90
2023-02-15T01:06:23.159Z,99.90
2023-02-15T01:08:50.467Z,99.90
2023-02-15T01:11:23.352Z,99.90
2023-02-15T01:13:54.042Z,99.90
2023-02-15T01:16:22.265Z,99.90
2023-02-15T01:18:49.680Z,99.90
2023-02-15T01:21:19.911Z,99.90
2023-02-15T01:23:47.321Z,99.90
2023-02-15T01:26:15.692Z,99.90
2023-02-15T01:28:44.745Z,99.90
2023-02-15T01:31:15.200Z,99.90
2023-02-15T01:33:43.008Z,99.90
2023-02-15T01:36:11.028Z,99.90
2023-02-15T01:38:41.062Z,99.90
2023-02-15T01:41:28.234Z,99.90
2023-02-15T01:44:01.174Z,99.90
2023-02-15T01:46:51.678Z,99.90
2023-02-15T01:49:24.856Z,99.90
2023-02-15T01:51:53.970Z,99.90
2023-02-15T01:54:30.183Z,99.90
2023-02-15T01:57:03.491Z,99.90
2023-02-15T01:59:33.513Z,99.90
2023-02-15T02:02:02.100Z,99.90
2023-02-15T02:04:46.766Z,99.90
2023-02-15T02:07:16.670Z,99.90
2023-02-15T02:09:45.566Z,99.90
2023-02-15T02:12:13.488Z,99.90
2023-02-15T02:14:41.751Z,99.90
2023-02-15T02:17:17.615Z,99.90
2023-02-15T02:20:16.424Z,99.90
2023-02-15T02:23:02.135Z,99.90
2023-02-15T02:25:57.572Z,99.90
2023-02-15T02:28:52.775Z,99.90
2023-02-15T02:31:50.286Z,99.90
2023-02-15T02:34:17.546Z,99.90
2023-02-15T02:36:53.696Z,99.90
2023-02-15T02:39:33.213Z,99.90
2023-02-15T02:42:30.946Z,99.90
2023-02-15T02:45:05.801Z,99.90
2023-02-15T02:47:45.825Z,99.90
2023-02-15T02:50:19.721Z,99.90
2023-02-15T02:52:49.085Z,99.90
2023-02-15T02:55:31.649Z,99.90
2023-02-15T02:58:05.578Z,99.90
2023-02-15T03:00:40.814Z,99.90
2023-02-15T03:03:13.561Z,99.90
2023-02-15T03:05:45.596Z,99.90
2023-02-15T03:08:22.644Z,99.90
2023-02-15T03:10:54.324Z,99.90
2023-02-15T03:13:22.650Z,99.90
2023-02-15T03:16:09.728Z,99.90
2023-02-15T03:18:45.189Z,99.90
2023-02-15T03:21:23.258Z,99.90
2023-02-15T03:24:22.098Z,99.90
2023-02-15T03:26:52.824Z,99.90
2023-02-15T03:29:23.251Z,99.90
2023-02-15T03:31:58.075Z,99.90
2023-02-15T03:34:25.861Z,99.90
2023-02-15T03:37:26.250Z,99.90
2023-02-15T03:40:19.068Z,99.90
2023-02-15T03:42:49.351Z,99.90
2023-02-15T03:45:22.442Z,99.90
2023-02-15T03:47:52.585Z,99.90
2023-02-15T03:50:48.351Z,99.90
2023-02-15T03:53:18.908Z,99.90
2023-02-15T03:55:54.230Z,99.90
2023-02-15T03:58:40.040Z,99.90
2023-02-15T04:01:42.036Z,99.90
2023-02-15T04:04:24.664Z,99.90
2023-02-15T04:06:52.870Z,99.90
2023-02-15T04:09:38.729Z,99.90
2023-02-15T04:12:06.068Z,99.90
2023-02-15T04:14:51.960Z,99.90
2023-02-15T04:17:19.257Z,99.90
2023-02-15T04:20:04.762Z,99.90
2023-02-15T04:22:50.496Z,99.90
2023-02-15T04:25:17.804Z,99.90
2023-02-15T04:27:55.586Z,99.90
2023-02-15T04:30:25.468Z,99.90
2023-02-15T04:32:52.965Z,99.90
2023-02-15T04:35:20.239Z,99.90
2023-02-15T04:37:47.515Z,99.90
2023-02-15T04:40:18.728Z,99.90
2023-02-15T04:42:50.102Z,99.90
2023-02-15T04:45:18.167Z,99.90
2023-02-15T04:47:45.978Z,99.90
2023-02-15T04:50:13.348Z,99.90
2023-02-15T04:52:40.654Z,99.90
2023-02-15T04:55:08.321Z,99.90
2023-02-15T04:57:35.741Z,99.90
2023-02-15T05:00:03.720Z,99.90
2023-02-15T05:02:31.453Z,99.90
2023-02-15T05:04:58.826Z,99.90
2023-02-15T05:07:26.108Z,99.90
2023-02-15T05:09:53.309Z,99.90
2023-02-15T05:12:20.553Z,99.90
2023-02-15T05:14:47.802Z,99.90
2023-02-15T05:17:15.006Z,99.90
2023-02-15T05:19:42.234Z,99.90
2023-02-15T05:22:09.463Z,99.90
2023-02-15T05:24:55.024Z,99.90
2023-02-15T05:27:40.600Z,99.90
2023-02-15T05:30:12.796Z,99.90
2023-02-15T05:32:40.578Z,99.90
2023-02-15T05:35:08.812Z,99.90
2023-02-15T05:37:36.092Z,99.90
2023-02-15T05:40:03.632Z,99.90
2023-02-15T05:42:30.815Z,99.90
2023-02-15T05:44:58.037Z,99.90
2023-02-15T05:47:25.250Z,99.90
2023-02-15T05:49:52.593Z,99.90
2023-02-15T05:52:19.909Z,99.90
2023-02-15T05:54:47.156Z,99.90
2023-02-15T05:57:14.439Z,99.90
2023-02-15T05:59:41.643Z,99.90
2023-02-15T06:02:08.964Z,99.90
2023-02-15T06:04:36.221Z,99.90
2023-02-15T06:07:03.523Z,99.90
2023-02-15T06:09:30.847Z,99.90
2023-02-15T06:11:58.208Z,99.90
2023-02-15T06:14:25.468Z,99.90
2023-02-15T06:16:52.675Z,99.90
2023-02-15T06:19:20.138Z,99.90
2023-02-15T06:21:47.449Z,99.90
2023-02-15T06:24:14.662Z,99.90
2023-02-15T06:26:42.065Z,99.90
2023-02-15T06:29:09.311Z,99.90
2023-02-15T06:31:36.664Z,99.90
2023-02-15T06:34:03.969Z,99.90
2023-02-15T06:36:32.721Z,99.90
2023-02-15T06:39:00.155Z,99.90
2023-02-15T06:41:27.611Z,99.90
2023-02-15T06:43:54.886Z,99.90
2023-02-15T06:46:22.206Z,99.90
2023-02-15T06:48:49.526Z,99.90
2023-02-15T06:51:16.818Z,99.90
2023-02-15T06:53:44.083Z,99.90
2023-02-15T06:56:12.322Z,99.90
2023-02-15T06:58:43.611Z,99.90
2023-02-15T07:01:10.943Z,99.90
2023-02-15T07:03:38.196Z,99.90
2023-02-15T07:06:09.350Z,99.90
2023-02-15T07:08:37.874Z,99.90
2023-02-15T07:11:24.399Z,99.90
2023-02-15T07:13:53.495Z,99.90
2023-02-15T07:16:21.045Z,99.90
2023-02-15T07:18:48.400Z,99.90
2023-02-15T07:21:15.651Z,99.90
2023-02-15T07:23:42.972Z,99.90
2023-02-15T07:26:10.305Z,99.90
2023-02-15T07:28:37.727Z,99.90
2023-02-15T07:31:05.977Z,99.90
2023-02-15T07:33:34.320Z,99.90
2023-02-15T07:36:04.350Z,99.90
2023-02-15T07:38:36.683Z,99.90
2023-02-15T07:41:09.701Z,99.90
2023-02-15T07:43:39.519Z,99.90
2023-02-15T07:46:13.253Z,99.90
2023-02-15T07:48:43.127Z,99.90
2023-02-15T07:51:12.406Z,99.90
2023-02-15T07:53:40.372Z,99.90
2023-02-15T07:56:13.414Z,99.90
2023-02-15T07:58:52.730Z,99.90
2023-02-15T08:01:21.211Z,99.90
2023-02-15T08:03:48.932Z,99.90
2023-02-15T08:06:16.275Z,99.90
2023-02-15T08:08:43.871Z,99.90
2023-02-15T08:11:26.919Z,99.90
2023-02-15T08:13:56.477Z,99.90
2023-02-15T08:16:28.750Z,99.90
2023-02-15T08:18:57.502Z,99.90
2023-02-15T08:21:26.949Z,99.90
2023-02-15T08:23:54.689Z,99.90
2023-02-15T08:26:23.456Z,99.90
2023-02-15T08:28:52.267Z,99.90
2023-02-15T08:31:20.041Z,99.90
2023-02-15T08:33:48.683Z,99.90
2023-02-15T08:36:19.551Z,99.90
2023-02-15T08:38:47.320Z,99.90
2023-02-15T08:41:18.254Z,99.90
2023-02-15T08:43:46.635Z,99.90
2023-02-15T08:46:17.960Z,99.90
2023-02-15T08:48:45.686Z,99.90
2023-02-15T08:51:16.081Z,99.90
2023-02-15T08:53:46.613Z,99.90
2023-02-15T08:56:14.005Z,99.90
2023-02-15T08:58:41.412Z,99.90
2023-02-15T09:01:13.148Z,99.90
2023-02-15T09:03:40.793Z,99.90
2023-02-15T09:06:09.213Z,99.90
2023-02-15T09:08:36.804Z,99.90
2023-02-15T09:11:08.116Z,99.90
2023-02-15T09:13:35.838Z,99.90
2023-02-15T09:16:08.095Z,99.90
2023-02-15T09:18:38.482Z,99.90
2023-02-15T09:21:17.660Z,99.90
2023-02-15T09:23:46.650Z,99.90
2023-02-15T09:26:22.912Z,99.90
2023-02-15T09:28:54.156Z,99.90
2023-02-15T09:31:24.148Z,99.90
2023-02-15T09:33:51.788Z,99.90
2023-02-15T09:36:21.160Z,99.90
2023-02-15T09:38:55.960Z,99.90
2023-02-15T09:41:52.470Z,99.90
2023-02-15T09:44:43.560Z,99.90
2023-02-15T09:47:39.925Z,99.90
2023-02-15T09:50:25.844Z,99.90
2023-02-15T09:53:30.776Z,99.90
2023-02-15T09:55:57.990Z,99.90
2023-02-15T09:58:53.903Z,99.90
2023-02-15T10:01:24.024Z,99.90
2023-02-15T10:03:54.532Z,99.90
2023-02-15T10:06:45.404Z,99.90
2023-02-15T10:09:15.339Z,99.90
2023-02-15T10:12:08.995Z,99.90
2023-02-15T10:15:10.280Z,99.90
2023-02-15T10:17:56.395Z,99.90
2023-02-15T10:20:30.173Z,99.90
2023-02-15T10:23:35.493Z,99.90
2023-02-15T10:26:15.064Z,99.90
2023-02-15T10:28:57.322Z,99.90
2023-02-15T10:31:26.621Z,99.90
2023-02-15T10:34:09.665Z,99.90
2023-02-15T10:36:56.337Z,99.90
2023-02-15T10:39:44.728Z,99.90
2023-02-15T10:42:35.562Z,99.90
2023-02-15T10:45:11.533Z,99.90
2023-02-15T10:48:05.934Z,99.90
2023-02-15T10:50:36.221Z,99.90
2023-02-15T10:53:22.075Z,99.90
2023-02-15T10:56:04.942Z,99.90
2023-02-15T10:58:45.771Z,99.90
2023-02-15T11:01:26.409Z,99.90
2023-02-15T11:04:17.369Z,99.90
2023-02-15T11:06:52.354Z,99.90
2023-02-15T11:09:23.446Z,99.90
2023-02-15T11:11:56.761Z,99.90
2023-02-15T11:14:51.325Z,99.90
2023-02-15T11:17:40.689Z,99.90
2023-02-15T11:20:20.277Z,99.90
2023-02-15T11:22:54.389Z,99.90
2023-02-15T11:25:26.990Z,99.90
2023-02-15T11:27:56.453Z,99.90
2023-02-15T11:30:28.899Z,99.90
2023-02-15T11:33:03.058Z,99.90
2023-02-15T11:35:42.871Z,99.90
2023-02-15T11:38:27.951Z,99.90
2023-02-15T11:40:59.968Z,99.90
2023-02-15T11:43:43.582Z,99.90
2023-02-15T11:46:13.714Z,99.90
2023-02-15T11:48:41.726Z,99.90
2023-02-15T11:51:23.724Z,99.90
2023-02-15T11:53:51.851Z,99.90
2023-02-15T11:56:25.116Z,99.90
2023-02-15T11:59:08.492Z,99.90
2023-02-15T12:01:46.778Z,99.90
2023-02-15T12:04:42.646Z,99.90
2023-02-15T12:07:26.740Z,99.90
2023-02-15T12:10:18.343Z,99.90
2023-02-15T12:12:45.694Z,99.90
2023-02-15T12:15:14.869Z,99.90
2023-02-15T12:17:51.461Z,99.90
2023-02-15T12:20:18.584Z,99.90
2023-02-15T12:23:04.251Z,99.90
2023-02-15T12:25:37.964Z,99.90
2023-02-15T12:28:22.426Z,99.90
2023-02-15T12:30:50.035Z,99.90
2023-02-15T12:33:25.064Z,99.90
2023-02-15T12:36:13.781Z,99.90
2023-02-15T12:38:41.129Z,99.90
2023-02-15T12:41:25.837Z,99.90
2023-02-15T12:44:07.225Z,99.90
2023-02-15T12:46:38.431Z,99.90
2023-02-15T12:49:21.330Z,99.90
2023-02-15T12:51:52.379Z,99.90
2023-02-15T12:54:39.762Z,99.90
2023-02-15T12:57:29.340Z,98.90
2023-02-15T13:00:06.859Z,98.40
2023-02-15T13:02:44.733Z,96.10
2023-02-15T13:05:19.584Z,95.00
2023-02-15T13:07:54.439Z,94.40
2023-02-15T13:10:26.652Z,93.30
2023-02-15T13:12:55.381Z,92.80
2023-02-15T13:15:26.977Z,91.40
2023-02-15T13:17:56.047Z,90.30
2023-02-15T13:20:24.948Z,90.20
2023-02-15T13:22:58.064Z,89.40
2023-02-15T13:25:32.188Z,89.80
2023-02-15T13:28:04.406Z,88.50
2023-02-15T13:30:36.294Z,86.30
2023-02-15T13:33:27.365Z,86.50
2023-02-15T13:36:11.198Z,84.40
2023-02-15T13:39:12.123Z,81.80
2023-02-15T13:42:06.136Z,80.50
2023-02-15T13:45:02.942Z,77.30
2023-02-15T13:47:50.084Z,76.20
2023-02-15T13:50:48.157Z,77.50
2023-02-15T13:53:59.801Z,77.50
2023-02-15T13:56:29.985Z,77.00
2023-02-15T13:59:22.658Z,76.50
2023-02-15T14:01:55.674Z,77.50
2023-02-15T14:04:51.782Z,78.00
2023-02-15T14:07:26.557Z,74.00
2023-02-15T14:10:32.303Z,70.70
2023-02-15T14:13:24.766Z,73.90
2023-02-15T14:15:59.587Z,73.80
2023-02-15T14:18:35.608Z,74.80
2023-02-15T14:21:15.861Z,74.90
2023-02-15T14:24:27.393Z,74.50
2023-02-15T14:27:06.763Z,72.80
2023-02-15T14:29:54.512Z,70.60
2023-02-15T14:32:47.143Z,70.70
2023-02-15T14:35:17.447Z,70.30
2023-02-15T14:37:50.881Z,68.60
2023-02-15T14:41:02.095Z,67.50
2023-02-15T14:43:46.769Z,66.20
2023-02-15T14:46:20.049Z,67.10
2023-02-15T14:48:54.361Z,67.60
2023-02-15T14:51:47.031Z,67.50
2023-02-15T14:54:23.054Z,66.70
2023-02-15T14:57:02.340Z,66.60
2023-02-15T14:59:44.412Z,67.60
2023-02-15T15:02:18.905Z,66.80
2023-02-15T15:05:02.215Z,66.90
2023-02-15T15:07:39.463Z,67.30
2023-02-15T15:10:17.911Z,64.60
2023-02-15T15:12:49.665Z,65.30
2023-02-15T15:15:28.950Z,67.50
2023-02-15T15:18:09.226Z,67.90
2023-02-15T15:20:45.760Z,66.60
2023-02-15T15:23:16.005Z,67.00
2023-02-15T15:26:19.102Z,66.50
2023-02-15T15:28:46.378Z,67.30
2023-02-15T15:31:21.643Z,68.20
2023-02-15T15:34:26.684Z,70.10
2023-02-15T15:37:21.259Z,70.60
2023-02-15T15:40:30.716Z,70.80
2023-02-15T15:43:34.088Z,70.50
2023-02-15T15:46:53.234Z,71.20
2023-02-15T15:49:22.704Z,72.60
2023-02-15T15:51:50.486Z,72.20
2023-02-15T15:54:22.910Z,71.70
2023-02-15T15:57:03.326Z,72.80
2023-02-15T15:59:35.183Z,73.70
2023-02-15T16:02:07.410Z,76.10
2023-02-15T16:04:35.956Z,77.10
2023-02-15T16:07:18.248Z,79.50
2023-02-15T16:10:06.341Z,82.00
2023-02-15T16:12:39.522Z,83.90
2023-02-15T16:15:45.797Z,87.10
2023-02-15T16:18:18.295Z,90.60
2023-02-15T16:21:03.180Z,92.30
2023-02-15T16:23:33.558Z,95.00
2023-02-15T16:26:14.176Z,98.10
2023-02-15T16:28:52.086Z,99.90
2023-02-15T16:31:21.221Z,99.90
2023-02-15T16:33:51.549Z,99.90
2023-02-15T16:36:30.854Z,99.90
2023-02-15T16:39:11.567Z,99.90
2023-02-15T16:41:41.197Z,99.90
2023-02-15T16:44:21.523Z,99.90
2023-02-15T16:46:55.375Z,99.90
2023-02-15T16:49:26.418Z,99.90
2023-02-15T16:52:28.294Z,99.90
2023-02-15T16:55:05.791Z,99.90
2023-02-15T16:57:38.049Z,99.90
2023-02-15T17:00:09.615Z,99.90
2023-02-15T17:02:55.674Z,99.90
2023-02-15T17:05:58.778Z,99.90
2023-02-15T17:08:35.693Z,99.90
2023-02-15T17:11:17.586Z,99.90
2023-02-15T17:14:20.909Z,99.90
2023-02-15T17:16:57.890Z,99.90
2023-02-15T17:19:54.319Z,99.90
2023-02-15T17:22:25.954Z,99.90
2023-02-15T17:25:04.180Z,99.90
2023-02-15T17:27:34.410Z,99.90
2023-02-15T17:30:20.080Z,99.90
2023-02-15T17:33:00.575Z,99.90
2023-02-15T17:35:33.380Z,99.90
2023-02-15T17:38:21.954Z,99.90
2023-02-15T17:40:49.274Z,99.90
2023-02-15T17:43:16.489Z,99.90
2023-02-15T17:45:52.136Z,99.90
2023-02-15T17:48:32.179Z,99.90
2023-02-15T17:51:02.769Z,99.90
2023-02-15T17:53:30.663Z,99.90
2023-02-15T17:55:58.092Z,99.90
2023-02-15T17:58:25.487Z,99.90
2023-02-15T18:01:16.495Z,99.90
2023-02-15T18:04:03.923Z,99.90
2023-02-15T18:06:49.698Z,99.90
2023-02-15T18:09:37.934Z,99.90
2023-02-15T18:12:27.759Z,99.90
2023-02-15T18:14:56.473Z,99.90
2023-02-15T18:17:34.778Z,99.90
2023-02-15T18:20:07.625Z,99.90
2023-02-15T18:22:35.267Z,99.90
2023-02-15T18:25:02.738Z,99.90
2023-02-15T18:27:33.733Z,99.90
2023-02-15T18:30:01.138Z,99.90
2023-02-15T18:32:34.442Z,99.90
2023-02-15T18:35:04.746Z,99.90
2023-02-15T18:37:33.457Z,99.90
2023-02-15T18:40:04.118Z,99.90
2023-02-15T18:42:44.682Z,99.90
2023-02-15T18:45:19.519Z,99.90
2023-02-15T18:47:47.909Z,99.90
2023-02-15T18:50:17.275Z,99.90
2023-02-15T18:52:47.682Z,99.90
2023-02-15T18:55:21.177Z,99.90
2023-02-15T18:57:51.139Z,99.90
2023-02-15T19:00:28.431Z,99.90
2023-02-15T19:02:56.712Z,99.90
2023-02-15T19:05:27.700Z,99.90
2023-02-15T19:07:55.988Z,99.90
2023-02-15T19:10:26.277Z,99.90
2023-02-15T19:12:55.882Z,99.90
2023-02-15T19:15:25.896Z,99.90
2023-02-15T19:17:55.105Z,99.90
2023-02-15T19:20:28.168Z,99.90
2023-02-15T19:22:57.895Z,99.90
2023-02-15T19:25:28.160Z,99.90
2023-02-15T19:27:56.069Z,99.90
2023-02-15T19:30:30.086Z,99.90
2023-02-15T19:32:58.907Z,99.90
2023-02-15T19:35:30.369Z,99.90
2023-02-15T19:38:00.602Z,99.90
2023-02-15T19:40:31.631Z,99.90
2023-02-15T19:42:58.936Z,99.90
2023-02-15T19:45:29.143Z,99.90
2023-02-15T19:47:56.692Z,99.90
2023-02-15T19:50:30.137Z,99.90
2023-02-15T19:52:57.882Z,99.90
2023-02-15T19:55:30.862Z,99.90
2023-02-15T19:57:59.793Z,99.90
2023-02-15T20:00:33.800Z,99.90
2023-02-15T20:03:01.577Z,99.90
2023-02-15T20:05:30.452Z,99.90
2023-02-15T20:07:58.429Z,99.90
2023-02-15T20:10:28.990Z,99.90
2023-02-15T20:12:56.944Z,99.90
2023-02-15T20:15:29.720Z,99.90
2023-02-15T20:17:58.478Z,99.90
2023-02-15T20:20:45.363Z,99.90
2023-02-15T20:23:31.539Z,99.90
2023-02-15T20:26:00.997Z,99.90
2023-02-15T20:28:31.017Z,99.90
2023-02-15T20:30:59.267Z,99.90
2023-02-15T20:33:26.673Z,99.90
2023-02-15T20:35:53.986Z,99.90
2023-02-15T20:38:25.668Z,99.90
2023-02-15T20:41:12.200Z,99.90
2023-02-15T20:43:40.025Z,99.90
2023-02-15T20:46:08.815Z,99.90
2023-02-15T20:48:36.123Z,99.90
2023-02-15T20:51:04.223Z,99.90
2023-02-15T20:53:31.871Z,99.90
2023-02-15T20:55:59.147Z,99.90
2023-02-15T20:58:29.964Z,99.90
2023-02-15T21:00:58.964Z,99.90
2023-02-15T21:03:30.866Z,99.90
2023-02-15T21:05:59.249Z,99.90
2023-02-15T21:08:27.321Z,99.90
2023-02-15T21:10:55.151Z,99.90
2023-02-15T21:13:26.573Z,99.90
2023-02-15T21:15:55.406Z,99.90
2023-02-15T21:18:25.615Z,99.90
2023-02-15T21:20:55.179Z,99.90
2023-02-15T21:23:27.095Z,99.90
2023-02-15T21:25:55.424Z,99.90
2023-02-15T21:28:25.439Z,99.90
2023-02-15T21:30:54.078Z,99.90
2023-02-15T21:33:21.442Z,99.90
2023-02-15T21:35:52.040Z,99.90
2023-02-15T21:38:22.735Z,99.90
2023-02-15T21:40:50.780Z,99.90
2023-02-15T21:43:40.827Z,99.90
2023-02-15T21:46:38.310Z,99.90
2023-02-15T21:49:08.614Z,99.90
2023-02-15T21:51:54.126Z,99.90
2023-02-15T21:54:21.628Z,99.90
2023-02-15T21:56:51.046Z,99.90
2023-02-15T21:59:18.775Z,99.90
2023-02-15T22:01:49.737Z,99.90
2023-02-15T22:04:28.512Z,99.90
2023-02-15T22:06:56.449Z,99.90
2023-02-15T22:09:26.883Z,99.90
2023-02-15T22:11:55.120Z,99.90
2023-02-15T22:14:35.500Z,99.90
2023-02-15T22:17:03.858Z,99.90
2023-02-15T22:19:31.141Z,99.90
2023-02-15T22:21:58.511Z,99.90
2023-02-15T22:24:27.016Z,99.90
2023-02-15T22:26:54.355Z,99.90
2023-02-15T22:29:21.913Z,99.90
2023-02-15T22:31:49.785Z,99.90
2023-02-15T22:34:26.256Z,99.90
2023-02-15T22:36:54.250Z,99.90
2023-02-15T22:39:24.949Z,99.90
2023-02-15T22:41:53.329Z,99.90
2023-02-15T22:44:25.378Z,99.90
2023-02-15T22:46:53.211Z,99.90
2023-02-15T22:49:20.649Z,99.90
2023-02-15T22:51:49.420Z,99.90
2023-02-15T22:54:18.262Z,99.90
2023-02-15T22:56:53.621Z,99.90
2023-02-15T22:59:30.078Z,99.90
2023-02-15T23:01:57.721Z,99.90
2023-02-15T23:04:27.672Z,99.90
2023-02-15T23:06:58.275Z,99.90
2023-02-15T23:09:25.523Z,99.90
2023-02-15T23:11:53.920Z,99.90
2023-02-15T23:14:36.438Z,99.90
2023-02-15T23:17:03.731Z,99.90
2023-02-15T23:19:30.926Z,99.90
2023-02-15T23:21:58.296Z,99.90
2023-02-15T23:24:30.634Z,99.90
2023-02-15T23:27:18.233Z,99.90
2023-02-15T23:29:45.564Z,99.90
2023-02-15T23:32:14.542Z,99.90
2023-02-15T23:34:42.614Z,99.90
2023-02-15T23:37:14.405Z,99.90
2023-02-15T23:40:00.068Z,99.90
2023-02-15T23:42:30.591Z,99.90
2023-02-15T23:44:57.946Z,99.90
2023-02-15T23:47:50.276Z,99.90
2023-02-15T23:50:24.334Z,99.90
2023-02-15T23:52:53.384Z,99.90
2023-02-15T23:55:22.048Z,99.90
2023-02-15T23:57:49.977Z,99.90
